sensor_id;sensor_type;location;lat;lon;timestamp;pressure;altitude;pressure_sealevel;temperature;humidity
64698;BME280;51124;53.394;-6.294;2023-06-26T00:02:03;100861.55;;;25.53;12.40
64698;BME280;51124;53.394;-6.294;2023-06-26T00:04:37;100870.09;;;25.44;12.54
64698;BME280;51124;53.394;-6.294;2023-06-26T00:07:15;100868.37;;;26.15;12.43
64698;BME280;51124;53.394;-6.294;2023-06-26T00:09:42;100868.94;;;25.80;12.63
64698;BME280;51124;53.394;-6.294;2023-06-26T00:12:09;100868.65;;;24.87;12.48
64698;BME280;51124;53.394;-6.294;2023-06-26T00:14:37;100874.15;;;24.64;12.89
64698;BME280;51124;53.394;-6.294;2023-06-26T00:17:05;100871.68;;;25.02;12.78
64698;BME280;51124;53.394;-6.294;2023-06-26T00:19:32;100873.45;;;25.17;12.53
64698;BME280;51124;53.394;-6.294;2023-06-26T00:21:59;100875.46;;;25.03;12.78
64698;BME280;51124;53.394;-6.294;2023-06-26T00:24:27;100875.60;;;25.59;12.64
64698;BME280;51124;53.394;-6.294;2023-06-26T00:26:55;100875.38;;;25.55;12.55
64698;BME280;51124;53.394;-6.294;2023-06-26T00:29:23;100872.17;;;26.22;12.42
64698;BME280;51124;53.394;-6.294;2023-06-26T00:31:50;100877.39;;;25.31;12.65
64698;BME280;51124;53.394;-6.294;2023-06-26T00:34:17;100873.85;;;25.39;12.54
64698;BME280;51124;53.394;-6.294;2023-06-26T00:36:45;100876.47;;;25.47;12.65
64698;BME280;51124;53.394;-6.294;2023-06-26T00:39:13;100876.24;;;25.55;12.70
64698;BME280;51124;53.394;-6.294;2023-06-26T00:41:40;100876.53;;;25.16;12.59
64698;BME280;51124;53.394;-6.294;2023-06-26T00:44:08;100878.25;;;25.86;12.56
64698;BME280;51124;53.394;-6.294;2023-06-26T00:46:36;100881.02;;;25.64;12.66
64698;BME280;51124;53.394;-6.294;2023-06-26T00:49:05;100884.76;;;25.31;12.61
64698;BME280;51124;53.394;-6.294;2023-06-26T00:51:32;100881.76;;;25.18;12.64
64698;BME280;51124;53.394;-6.294;2023-06-26T00:54:00;100883.40;;;24.92;12.69
64698;BME280;51124;53.394;-6.294;2023-06-26T00:56:28;100887.33;;;25.05;12.76
64698;BME280;51124;53.394;-6.294;2023-06-26T00:58:56;100890.15;;;25.23;12.81
64698;BME280;51124;53.394;-6.294;2023-06-26T01:01:23;100887.73;;;25.52;12.62
64698;BME280;51124;53.394;-6.294;2023-06-26T01:03:52;100892.93;;;25.68;12.45
64698;BME280;51124;53.394;-6.294;2023-06-26T01:06:22;100892.41;;;25.68;12.47
64698;BME280;51124;53.394;-6.294;2023-06-26T01:08:51;100891.79;;;25.34;12.67
64698;BME280;51124;53.394;-6.294;2023-06-26T01:11:18;100893.01;;;24.96;12.63
64698;BME280;51124;53.394;-6.294;2023-06-26T01:13:46;100892.15;;;25.17;12.72
64698;BME280;51124;53.394;-6.294;2023-06-26T01:16:14;100898.91;;;25.24;12.77
64698;BME280;51124;53.394;-6.294;2023-06-26T01:18:42;100906.33;;;25.32;12.80
64698;BME280;51124;53.394;-6.294;2023-06-26T01:21:11;100904.51;;;24.89;12.80
64698;BME280;51124;53.394;-6.294;2023-06-26T01:23:45;100902.43;;;25.63;12.67
64698;BME280;51124;53.394;-6.294;2023-06-26T01:26:14;100903.16;;;25.80;12.60
64698;BME280;51124;53.394;-6.294;2023-06-26T01:28:32;100906.32;;;25.47;12.74
64698;BME280;51124;53.394;-6.294;2023-06-26T01:31:01;100905.78;;;25.64;12.60
64698;BME280;51124;53.394;-6.294;2023-06-26T01:33:29;100907.19;;;25.31;12.75
64698;BME280;51124;53.394;-6.294;2023-06-26T01:35:57;100909.50;;;25.27;12.68
64698;BME280;51124;53.394;-6.294;2023-06-26T01:38:25;100907.18;;;25.84;12.62
64698;BME280;51124;53.394;-6.294;2023-06-26T01:40:53;100908.00;;;25.06;12.82
64698;BME280;51124;53.394;-6.294;2023-06-26T01:43:25;100910.29;;;25.11;12.61
64698;BME280;51124;53.394;-6.294;2023-06-26T01:45:58;100910.15;;;26.15;12.60
64698;BME280;51124;53.394;-6.294;2023-06-26T01:48:31;100909.55;;;25.26;12.78
64698;BME280;51124;53.394;-6.294;2023-06-26T01:51:01;100910.08;;;25.02;12.79
64698;BME280;51124;53.394;-6.294;2023-06-26T01:53:35;100909.81;;;25.21;12.69
64698;BME280;51124;53.394;-6.294;2023-06-26T01:56:10;100913.92;;;25.65;12.79
64698;BME280;51124;53.394;-6.294;2023-06-26T01:58:29;100908.35;;;25.25;12.90
64698;BME280;51124;53.394;-6.294;2023-06-26T02:00:58;100907.36;;;24.93;12.92
64698;BME280;51124;53.394;-6.294;2023-06-26T02:03:26;100905.83;;;25.01;12.85
64698;BME280;51124;53.394;-6.294;2023-06-26T02:05:54;100910.32;;;25.63;12.65
64698;BME280;51124;53.394;-6.294;2023-06-26T02:08:21;100908.55;;;25.30;12.84
64698;BME280;51124;53.394;-6.294;2023-06-26T02:10:49;100906.38;;;25.29;12.80
64698;BME280;51124;53.394;-6.294;2023-06-26T02:13:16;100902.76;;;25.51;12.82
64698;BME280;51124;53.394;-6.294;2023-06-26T02:15:44;100906.76;;;24.39;12.99
64698;BME280;51124;53.394;-6.294;2023-06-26T02:18:11;100909.89;;;24.53;13.02
64698;BME280;51124;53.394;-6.294;2023-06-26T02:20:38;100909.21;;;24.55;13.01
64698;BME280;51124;53.394;-6.294;2023-06-26T02:23:06;100906.66;;;24.95;12.82
64698;BME280;51124;53.394;-6.294;2023-06-26T02:25:33;100907.33;;;24.90;12.77
64698;BME280;51124;53.394;-6.294;2023-06-26T02:28:01;100904.92;;;25.47;12.74
64698;BME280;51124;53.394;-6.294;2023-06-26T02:30:28;100902.67;;;25.19;12.85
64698;BME280;51124;53.394;-6.294;2023-06-26T02:32:56;100905.40;;;24.90;12.93
64698;BME280;51124;53.394;-6.294;2023-06-26T02:35:23;100909.92;;;24.73;12.88
64698;BME280;51124;53.394;-6.294;2023-06-26T02:37:50;100908.31;;;24.98;12.90
64698;BME280;51124;53.394;-6.294;2023-06-26T02:40:18;100911.55;;;25.20;12.84
64698;BME280;51124;53.394;-6.294;2023-06-26T02:42:45;100907.02;;;24.93;12.88
64698;BME280;51124;53.394;-6.294;2023-06-26T02:45:13;100915.94;;;25.10;12.77
64698;BME280;51124;53.394;-6.294;2023-06-26T02:47:40;100917.18;;;25.04;12.88
64698;BME280;51124;53.394;-6.294;2023-06-26T02:50:08;100921.08;;;25.13;12.81
64698;BME280;51124;53.394;-6.294;2023-06-26T02:52:36;100925.63;;;25.02;12.92
64698;BME280;51124;53.394;-6.294;2023-06-26T02:55:04;100926.38;;;24.82;12.99
64698;BME280;51124;53.394;-6.294;2023-06-26T02:57:32;100925.84;;;24.53;13.03
64698;BME280;51124;53.394;-6.294;2023-06-26T02:59:59;100927.64;;;24.83;12.97
64698;BME280;51124;53.394;-6.294;2023-06-26T03:02:26;100927.54;;;24.73;12.91
64698;BME280;51124;53.394;-6.294;2023-06-26T03:04:54;100933.47;;;25.74;12.78
64698;BME280;51124;53.394;-6.294;2023-06-26T03:07:22;100934.02;;;24.59;12.94
64698;BME280;51124;53.394;-6.294;2023-06-26T03:09:49;100939.81;;;24.47;12.99
64698;BME280;51124;53.394;-6.294;2023-06-26T03:12:17;100937.16;;;24.24;12.92
64698;BME280;51124;53.394;-6.294;2023-06-26T03:14:44;100935.91;;;24.54;12.97
64698;BME280;51124;53.394;-6.294;2023-06-26T03:17:11;100932.78;;;25.19;12.87
64698;BME280;51124;53.394;-6.294;2023-06-26T03:19:39;100930.31;;;24.98;12.74
64698;BME280;51124;53.394;-6.294;2023-06-26T03:22:06;100932.38;;;24.77;12.99
64698;BME280;51124;53.394;-6.294;2023-06-26T03:24:34;100930.50;;;25.41;12.81
64698;BME280;51124;53.394;-6.294;2023-06-26T03:27:01;100935.17;;;24.51;12.97
64698;BME280;51124;53.394;-6.294;2023-06-26T03:29:28;100937.18;;;24.74;12.87
64698;BME280;51124;53.394;-6.294;2023-06-26T03:31:56;100939.18;;;24.71;12.76
64698;BME280;51124;53.394;-6.294;2023-06-26T03:34:23;100941.62;;;24.24;13.08
64698;BME280;51124;53.394;-6.294;2023-06-26T03:36:51;100945.03;;;25.22;12.82
64698;BME280;51124;53.394;-6.294;2023-06-26T03:39:18;100942.86;;;24.70;12.80
64698;BME280;51124;53.394;-6.294;2023-06-26T03:41:46;100945.57;;;25.27;12.80
64698;BME280;51124;53.394;-6.294;2023-06-26T03:44:13;100945.76;;;24.50;13.09
64698;BME280;51124;53.394;-6.294;2023-06-26T03:46:40;100943.16;;;24.33;12.91
64698;BME280;51124;53.394;-6.294;2023-06-26T03:49:08;100945.22;;;25.00;12.96
64698;BME280;51124;53.394;-6.294;2023-06-26T03:51:36;100950.64;;;24.80;13.08
64698;BME280;51124;53.394;-6.294;2023-06-26T03:54:03;100952.50;;;24.97;12.86
64698;BME280;51124;53.394;-6.294;2023-06-26T03:56:31;100951.09;;;24.27;13.03
64698;BME280;51124;53.394;-6.294;2023-06-26T03:58:58;100949.15;;;24.51;12.89
64698;BME280;51124;53.394;-6.294;2023-06-26T04:01:26;100948.95;;;24.94;12.94
64698;BME280;51124;53.394;-6.294;2023-06-26T04:03:53;100950.16;;;24.79;12.97
64698;BME280;51124;53.394;-6.294;2023-06-26T04:06:21;100950.68;;;25.16;12.60
64698;BME280;51124;53.394;-6.294;2023-06-26T04:08:48;100952.14;;;24.39;13.08
64698;BME280;51124;53.394;-6.294;2023-06-26T04:11:15;100951.55;;;24.80;12.86
64698;BME280;51124;53.394;-6.294;2023-06-26T04:13:43;100954.10;;;24.98;12.86
64698;BME280;51124;53.394;-6.294;2023-06-26T04:16:10;100957.71;;;24.46;12.93
64698;BME280;51124;53.394;-6.294;2023-06-26T04:18:38;100959.57;;;24.69;12.75
64698;BME280;51124;53.394;-6.294;2023-06-26T04:21:07;100958.92;;;24.32;13.01
64698;BME280;51124;53.394;-6.294;2023-06-26T04:23:35;100963.78;;;24.48;12.83
64698;BME280;51124;53.394;-6.294;2023-06-26T04:26:03;100967.00;;;24.70;12.84
64698;BME280;51124;53.394;-6.294;2023-06-26T04:28:30;100968.28;;;25.16;12.50
64698;BME280;51124;53.394;-6.294;2023-06-26T04:30:58;100971.72;;;25.69;12.59
64698;BME280;51124;53.394;-6.294;2023-06-26T04:33:26;100979.50;;;25.01;12.75
64698;BME280;51124;53.394;-6.294;2023-06-26T04:35:53;100976.03;;;24.47;12.97
64698;BME280;51124;53.394;-6.294;2023-06-26T04:38:21;100976.82;;;24.07;12.98
64698;BME280;51124;53.394;-6.294;2023-06-26T04:40:48;100985.25;;;24.68;12.84
64698;BME280;51124;53.394;-6.294;2023-06-26T04:43:16;100990.94;;;24.87;12.88
64698;BME280;51124;53.394;-6.294;2023-06-26T04:45:44;100991.68;;;24.67;12.83
64698;BME280;51124;53.394;-6.294;2023-06-26T04:48:11;100994.43;;;25.65;12.53
64698;BME280;51124;53.394;-6.294;2023-06-26T04:50:39;100997.57;;;25.29;12.60
64698;BME280;51124;53.394;-6.294;2023-06-26T04:53:07;101004.17;;;25.08;12.79
64698;BME280;51124;53.394;-6.294;2023-06-26T04:55:35;101008.38;;;25.62;12.73
64698;BME280;51124;53.394;-6.294;2023-06-26T04:58:02;101011.80;;;25.04;12.64
64698;BME280;51124;53.394;-6.294;2023-06-26T05:00:29;101014.30;;;24.27;13.03
64698;BME280;51124;53.394;-6.294;2023-06-26T05:02:57;101018.91;;;24.73;12.74
64698;BME280;51124;53.394;-6.294;2023-06-26T05:05:24;101015.99;;;25.26;12.69
64698;BME280;51124;53.394;-6.294;2023-06-26T05:07:54;101017.50;;;24.98;12.82
64698;BME280;51124;53.394;-6.294;2023-06-26T05:10:22;101011.71;;;23.97;12.94
64698;BME280;51124;53.394;-6.294;2023-06-26T05:12:50;101020.59;;;24.17;12.77
64698;BME280;51124;53.394;-6.294;2023-06-26T05:15:18;101023.75;;;24.70;12.69
64698;BME280;51124;53.394;-6.294;2023-06-26T05:17:45;101021.65;;;25.08;12.75
64698;BME280;51124;53.394;-6.294;2023-06-26T05:20:13;101025.69;;;25.10;12.75
64698;BME280;51124;53.394;-6.294;2023-06-26T05:22:41;101024.30;;;24.89;12.68
64698;BME280;51124;53.394;-6.294;2023-06-26T05:25:10;101027.10;;;24.67;12.68
64698;BME280;51124;53.394;-6.294;2023-06-26T05:27:38;101029.37;;;25.16;12.62
64698;BME280;51124;53.394;-6.294;2023-06-26T05:30:07;101032.72;;;25.45;12.58
64698;BME280;51124;53.394;-6.294;2023-06-26T05:32:38;101037.80;;;25.34;12.60
64698;BME280;51124;53.394;-6.294;2023-06-26T05:35:08;101038.99;;;24.72;12.71
64698;BME280;51124;53.394;-6.294;2023-06-26T05:37:36;101036.38;;;24.52;12.81
64698;BME280;51124;53.394;-6.294;2023-06-26T05:40:05;101040.21;;;25.17;12.65
64698;BME280;51124;53.394;-6.294;2023-06-26T05:42:33;101036.59;;;25.08;12.69
64698;BME280;51124;53.394;-6.294;2023-06-26T05:45:00;101036.03;;;24.47;12.71
64698;BME280;51124;53.394;-6.294;2023-06-26T05:47:28;101038.60;;;25.02;12.67
64698;BME280;51124;53.394;-6.294;2023-06-26T05:49:56;101034.60;;;25.40;12.73
64698;BME280;51124;53.394;-6.294;2023-06-26T05:52:24;101036.34;;;24.78;12.81
64698;BME280;51124;53.394;-6.294;2023-06-26T05:54:52;101037.70;;;24.89;12.54
64698;BME280;51124;53.394;-6.294;2023-06-26T05:57:20;101040.17;;;25.52;12.52
64698;BME280;51124;53.394;-6.294;2023-06-26T05:59:43;101037.67;;;24.82;12.58
64698;BME280;51124;53.394;-6.294;2023-06-26T06:02:18;101037.07;;;24.94;12.65
64698;BME280;51124;53.394;-6.294;2023-06-26T06:04:52;101030.97;;;25.27;12.66
64698;BME280;51124;53.394;-6.294;2023-06-26T06:07:25;101030.06;;;24.80;12.68
64698;BME280;51124;53.394;-6.294;2023-06-26T06:09:59;101028.11;;;24.51;12.64
64698;BME280;51124;53.394;-6.294;2023-06-26T06:12:33;101028.43;;;24.79;12.64
64698;BME280;51124;53.394;-6.294;2023-06-26T06:15:07;101027.33;;;25.03;12.58
64698;BME280;51124;53.394;-6.294;2023-06-26T06:17:41;101032.13;;;24.98;12.59
64698;BME280;51124;53.394;-6.294;2023-06-26T06:20:14;101033.66;;;24.83;12.61
64698;BME280;51124;53.394;-6.294;2023-06-26T06:22:48;101038.45;;;24.25;12.69
64698;BME280;51124;53.394;-6.294;2023-06-26T06:25:21;101037.84;;;24.62;12.69
64698;BME280;51124;53.394;-6.294;2023-06-26T06:27:55;101040.90;;;24.78;12.73
64698;BME280;51124;53.394;-6.294;2023-06-26T06:30:29;101045.05;;;24.47;12.66
64698;BME280;51124;53.394;-6.294;2023-06-26T06:33:02;101047.29;;;25.39;12.57
64698;BME280;51124;53.394;-6.294;2023-06-26T06:35:36;101042.68;;;25.17;12.32
64698;BME280;51124;53.394;-6.294;2023-06-26T06:38:09;101050.55;;;25.62;12.33
64698;BME280;51124;53.394;-6.294;2023-06-26T06:40:43;101051.73;;;25.53;12.43
64698;BME280;51124;53.394;-6.294;2023-06-26T06:43:17;101054.36;;;24.37;12.64
64698;BME280;51124;53.394;-6.294;2023-06-26T06:45:50;101057.09;;;24.95;12.54
64698;BME280;51124;53.394;-6.294;2023-06-26T06:48:24;101061.78;;;24.94;12.43
64698;BME280;51124;53.394;-6.294;2023-06-26T06:50:57;101054.33;;;24.15;12.69
64698;BME280;51124;53.394;-6.294;2023-06-26T06:53:31;101062.49;;;25.40;12.47
64698;BME280;51124;53.394;-6.294;2023-06-26T06:56:05;101064.57;;;24.32;12.77
64698;BME280;51124;53.394;-6.294;2023-06-26T06:58:38;101064.75;;;24.37;12.84
64698;BME280;51124;53.394;-6.294;2023-06-26T07:01:13;101065.20;;;24.84;12.62
64698;BME280;51124;53.394;-6.294;2023-06-26T07:03:46;101068.24;;;24.49;12.85
64698;BME280;51124;53.394;-6.294;2023-06-26T07:06:20;101069.82;;;25.51;12.72
64698;BME280;51124;53.394;-6.294;2023-06-26T07:08:53;101076.98;;;25.56;12.38
64698;BME280;51124;53.394;-6.294;2023-06-26T07:11:26;101079.87;;;24.51;12.45
64698;BME280;51124;53.394;-6.294;2023-06-26T07:14:00;101079.03;;;24.51;12.59
64698;BME280;51124;53.394;-6.294;2023-06-26T07:16:34;101079.10;;;25.22;12.40
64698;BME280;51124;53.394;-6.294;2023-06-26T07:19:07;101082.06;;;25.18;12.56
64698;BME280;51124;53.394;-6.294;2023-06-26T07:21:41;101089.66;;;25.33;12.67
64698;BME280;51124;53.394;-6.294;2023-06-26T07:24:15;101088.76;;;24.26;12.85
64698;BME280;51124;53.394;-6.294;2023-06-26T07:26:48;101091.73;;;24.54;12.95
64698;BME280;51124;53.394;-6.294;2023-06-26T07:29:22;101090.03;;;24.84;12.92
64698;BME280;51124;53.394;-6.294;2023-06-26T07:31:55;101089.10;;;23.76;13.17
64698;BME280;51124;53.394;-6.294;2023-06-26T07:34:29;101095.23;;;24.30;13.12
64698;BME280;51124;53.394;-6.294;2023-06-26T07:37:03;101094.82;;;25.18;13.08
64698;BME280;51124;53.394;-6.294;2023-06-26T07:39:37;101092.83;;;23.56;13.08
64698;BME280;51124;53.394;-6.294;2023-06-26T07:42:11;101097.71;;;24.65;12.93
64698;BME280;51124;53.394;-6.294;2023-06-26T07:44:45;101098.75;;;24.48;12.83
64698;BME280;51124;53.394;-6.294;2023-06-26T07:47:18;101107.23;;;24.75;12.80
64698;BME280;51124;53.394;-6.294;2023-06-26T07:49:52;101113.50;;;24.70;12.88
64698;BME280;51124;53.394;-6.294;2023-06-26T07:52:25;101106.86;;;24.05;12.84
64698;BME280;51124;53.394;-6.294;2023-06-26T07:54:59;101112.63;;;24.83;12.71
64698;BME280;51124;53.394;-6.294;2023-06-26T07:57:32;101113.70;;;25.40;12.48
64698;BME280;51124;53.394;-6.294;2023-06-26T08:00:07;101113.57;;;24.18;12.80
64698;BME280;51124;53.394;-6.294;2023-06-26T08:02:31;101118.44;;;25.40;12.71
64698;BME280;51124;53.394;-6.294;2023-06-26T08:05:05;101116.82;;;24.41;12.80
64698;BME280;51124;53.394;-6.294;2023-06-26T08:07:39;101115.26;;;25.43;12.55
64698;BME280;51124;53.394;-6.294;2023-06-26T08:10:13;101114.40;;;26.14;12.35
64698;BME280;51124;53.394;-6.294;2023-06-26T08:12:46;101110.50;;;25.58;12.21
64698;BME280;51124;53.394;-6.294;2023-06-26T08:15:20;101116.81;;;26.23;12.36
64698;BME280;51124;53.394;-6.294;2023-06-26T08:17:53;101113.12;;;25.75;12.22
64698;BME280;51124;53.394;-6.294;2023-06-26T08:20:27;101116.58;;;26.64;12.23
64698;BME280;51124;53.394;-6.294;2023-06-26T08:23:03;101117.19;;;26.20;12.15
64698;BME280;51124;53.394;-6.294;2023-06-26T08:25:27;101121.84;;;25.53;12.25
64698;BME280;51124;53.394;-6.294;2023-06-26T08:28:00;101125.88;;;25.80;12.47
64698;BME280;51124;53.394;-6.294;2023-06-26T08:30:34;101126.36;;;26.03;12.36
64698;BME280;51124;53.394;-6.294;2023-06-26T08:33:07;101122.19;;;25.87;12.55
64698;BME280;51124;53.394;-6.294;2023-06-26T08:35:41;101117.41;;;26.31;12.26
64698;BME280;51124;53.394;-6.294;2023-06-26T08:38:14;101123.34;;;26.03;12.42
64698;BME280;51124;53.394;-6.294;2023-06-26T08:40:48;101122.27;;;25.34;12.45
64698;BME280;51124;53.394;-6.294;2023-06-26T08:43:22;101117.34;;;26.91;12.21
64698;BME280;51124;53.394;-6.294;2023-06-26T08:45:55;101118.84;;;25.93;12.29
64698;BME280;51124;53.394;-6.294;2023-06-26T08:48:32;101121.05;;;26.31;12.34
64698;BME280;51124;53.394;-6.294;2023-06-26T08:50:56;101118.94;;;26.21;12.30
64698;BME280;51124;53.394;-6.294;2023-06-26T08:53:26;101122.75;;;26.58;12.15
64698;BME280;51124;53.394;-6.294;2023-06-26T08:55:53;101127.12;;;27.06;11.97
64698;BME280;51124;53.394;-6.294;2023-06-26T08:58:28;101128.13;;;26.09;11.92
64698;BME280;51124;53.394;-6.294;2023-06-26T09:01:02;101125.06;;;26.96;12.04
64698;BME280;51124;53.394;-6.294;2023-06-26T09:03:36;101126.98;;;26.75;11.94
64698;BME280;51124;53.394;-6.294;2023-06-26T09:06:10;101129.29;;;26.44;12.17
64698;BME280;51124;53.394;-6.294;2023-06-26T09:08:44;101126.25;;;26.08;12.12
64698;BME280;51124;53.394;-6.294;2023-06-26T09:11:17;101126.14;;;26.64;11.55
64698;BME280;51124;53.394;-6.294;2023-06-26T09:13:51;101126.64;;;26.94;11.31
64698;BME280;51124;53.394;-6.294;2023-06-26T09:16:25;101132.81;;;26.14;11.62
64698;BME280;51124;53.394;-6.294;2023-06-26T09:18:59;101132.83;;;26.31;11.74
64698;BME280;51124;53.394;-6.294;2023-06-26T09:21:33;101133.67;;;27.31;11.50
64698;BME280;51124;53.394;-6.294;2023-06-26T09:24:09;101142.79;;;26.64;11.50
64698;BME280;51124;53.394;-6.294;2023-06-26T09:26:33;101141.78;;;26.56;11.63
64698;BME280;51124;53.394;-6.294;2023-06-26T09:29:08;101136.32;;;27.14;11.65
64698;BME280;51124;53.394;-6.294;2023-06-26T09:31:33;101139.82;;;27.24;11.72
64698;BME280;51124;53.394;-6.294;2023-06-26T09:34:06;101136.78;;;26.70;11.67
64698;BME280;51124;53.394;-6.294;2023-06-26T09:36:40;101138.34;;;27.27;11.70
64698;BME280;51124;53.394;-6.294;2023-06-26T09:39:14;101139.78;;;26.60;11.67
64698;BME280;51124;53.394;-6.294;2023-06-26T09:41:56;101141.32;;;26.54;11.78
64698;BME280;51124;53.394;-6.294;2023-06-26T09:44:19;101138.10;;;26.65;11.87
64698;BME280;51124;53.394;-6.294;2023-06-26T09:46:55;101134.32;;;26.02;12.04
64698;BME280;51124;53.394;-6.294;2023-06-26T09:49:28;101139.48;;;26.96;11.93
64698;BME280;51124;53.394;-6.294;2023-06-26T09:52:03;101133.83;;;27.10;11.79
64698;BME280;51124;53.394;-6.294;2023-06-26T09:54:36;101143.59;;;26.56;11.74
64698;BME280;51124;53.394;-6.294;2023-06-26T09:57:11;101140.46;;;27.14;11.69
64698;BME280;51124;53.394;-6.294;2023-06-26T09:59:47;101143.19;;;26.86;11.78
64698;BME280;51124;53.394;-6.294;2023-06-26T10:02:12;101142.90;;;27.26;11.68
64698;BME280;51124;53.394;-6.294;2023-06-26T10:04:45;101152.61;;;26.99;11.86
64698;BME280;51124;53.394;-6.294;2023-06-26T10:07:20;101148.04;;;27.43;11.79
64698;BME280;51124;53.394;-6.294;2023-06-26T10:09:44;101151.11;;;26.64;11.77
64698;BME280;51124;53.394;-6.294;2023-06-26T10:12:14;101151.53;;;27.32;11.76
64698;BME280;51124;53.394;-6.294;2023-06-26T10:14:41;101153.01;;;27.21;11.78
64698;BME280;51124;53.394;-6.294;2023-06-26T10:17:17;101158.52;;;27.02;11.79
64698;BME280;51124;53.394;-6.294;2023-06-26T10:19:45;101164.48;;;27.23;11.80
64698;BME280;51124;53.394;-6.294;2023-06-26T10:22:08;101160.07;;;26.98;11.83
64698;BME280;51124;53.394;-6.294;2023-06-26T10:24:44;101164.37;;;27.12;11.73
64698;BME280;51124;53.394;-6.294;2023-06-26T10:27:12;101161.37;;;27.74;11.73
64698;BME280;51124;53.394;-6.294;2023-06-26T10:29:37;101161.36;;;26.82;11.68
64698;BME280;51124;53.394;-6.294;2023-06-26T10:32:12;101165.15;;;27.01;11.85
64698;BME280;51124;53.394;-6.294;2023-06-26T10:34:46;101163.70;;;27.00;11.56
64698;BME280;51124;53.394;-6.294;2023-06-26T10:37:20;101170.49;;;27.54;11.52
64698;BME280;51124;53.394;-6.294;2023-06-26T10:39:53;101173.60;;;26.66;11.61
64698;BME280;51124;53.394;-6.294;2023-06-26T10:42:35;101190.95;;;27.56;11.53
64698;BME280;51124;53.394;-6.294;2023-06-26T10:45:09;101200.96;;;26.95;11.39
64698;BME280;51124;53.394;-6.294;2023-06-26T10:47:33;101207.96;;;27.26;11.65
64698;BME280;51124;53.394;-6.294;2023-06-26T10:50:24;101210.80;;;26.88;11.50
64698;BME280;51124;53.394;-6.294;2023-06-26T10:52:37;101212.25;;;27.32;11.44
64698;BME280;51124;53.394;-6.294;2023-06-26T10:55:13;101215.22;;;27.68;11.59
64698;BME280;51124;53.394;-6.294;2023-06-26T10:57:37;101216.80;;;26.97;11.66
64698;BME280;51124;53.394;-6.294;2023-06-26T11:00:13;101215.80;;;27.62;11.53
64698;BME280;51124;53.394;-6.294;2023-06-26T11:02:52;101214.40;;;27.36;11.49
64698;BME280;51124;53.394;-6.294;2023-06-26T11:05:07;101215.26;;;27.26;11.60
64698;BME280;51124;53.394;-6.294;2023-06-26T11:07:31;101216.20;;;28.10;11.54
64698;BME280;51124;53.394;-6.294;2023-06-26T11:10:08;101214.31;;;26.18;11.14
64698;BME280;51124;53.394;-6.294;2023-06-26T11:12:37;101214.78;;;26.58;10.34
64698;BME280;51124;53.394;-6.294;2023-06-26T11:15:01;101218.69;;;25.74;10.42
64698;BME280;51124;53.394;-6.294;2023-06-26T11:17:35;101222.45;;;25.76;10.29
64698;BME280;51124;53.394;-6.294;2023-06-26T11:20:11;101213.78;;;26.28;10.34
64698;BME280;51124;53.394;-6.294;2023-06-26T11:22:35;101220.40;;;25.41;10.35
64698;BME280;51124;53.394;-6.294;2023-06-26T11:25:12;101218.21;;;25.88;10.33
64698;BME280;51124;53.394;-6.294;2023-06-26T11:27:39;101227.39;;;26.04;10.12
64698;BME280;51124;53.394;-6.294;2023-06-26T11:30:06;101221.52;;;25.72;10.30
64698;BME280;51124;53.394;-6.294;2023-06-26T11:32:30;101234.83;;;25.76;10.56
64698;BME280;51124;53.394;-6.294;2023-06-26T11:35:04;101240.09;;;25.41;10.45
64698;BME280;51124;53.394;-6.294;2023-06-26T11:37:38;101235.46;;;25.83;10.55
64698;BME280;51124;53.394;-6.294;2023-06-26T11:40:20;101247.72;;;26.15;10.57
64698;BME280;51124;53.394;-6.294;2023-06-26T11:42:44;101247.51;;;26.89;10.27
64698;BME280;51124;53.394;-6.294;2023-06-26T11:45:19;101247.00;;;27.25;10.20
64698;BME280;51124;53.394;-6.294;2023-06-26T11:47:54;101242.88;;;25.89;10.39
64698;BME280;51124;53.394;-6.294;2023-06-26T11:50:28;101242.52;;;25.78;10.32
64698;BME280;51124;53.394;-6.294;2023-06-26T11:53:02;101238.30;;;27.00;9.90
64698;BME280;51124;53.394;-6.294;2023-06-26T11:55:41;101240.18;;;27.31;10.08
64698;BME280;51124;53.394;-6.294;2023-06-26T11:58:04;101239.44;;;27.03;10.25
64698;BME280;51124;53.394;-6.294;2023-06-26T12:00:42;101233.83;;;25.83;10.47
64698;BME280;51124;53.394;-6.294;2023-06-26T12:03:05;101236.40;;;26.19;10.35
64698;BME280;51124;53.394;-6.294;2023-06-26T12:05:39;101235.20;;;26.59;10.26
64698;BME280;51124;53.394;-6.294;2023-06-26T12:08:13;101238.97;;;27.09;10.14
64698;BME280;51124;53.394;-6.294;2023-06-26T12:10:47;101237.07;;;25.82;10.33
64698;BME280;51124;53.394;-6.294;2023-06-26T12:13:21;101234.89;;;26.41;10.34
64698;BME280;51124;53.394;-6.294;2023-06-26T12:15:57;101235.54;;;26.82;10.13
64698;BME280;51124;53.394;-6.294;2023-06-26T12:18:21;101232.83;;;27.65;9.93
64698;BME280;51124;53.394;-6.294;2023-06-26T12:20:54;101226.44;;;27.21;9.83
64698;BME280;51124;53.394;-6.294;2023-06-26T12:23:32;101227.90;;;28.23;9.62
64698;BME280;51124;53.394;-6.294;2023-06-26T12:25:55;101222.81;;;28.50;9.62
64698;BME280;51124;53.394;-6.294;2023-06-26T12:28:37;101225.43;;;28.56;9.80
64698;BME280;51124;53.394;-6.294;2023-06-26T12:31:17;101231.74;;;28.58;9.80
64698;BME280;51124;53.394;-6.294;2023-06-26T12:33:33;101223.10;;;29.11;9.76
64698;BME280;51124;53.394;-6.294;2023-06-26T12:36:10;101226.25;;;28.22;9.83
64698;BME280;51124;53.394;-6.294;2023-06-26T12:38:34;101223.88;;;28.70;9.93
64698;BME280;51124;53.394;-6.294;2023-06-26T12:41:12;101225.36;;;28.37;9.96
64698;BME280;51124;53.394;-6.294;2023-06-26T12:43:38;101227.32;;;28.52;9.90
64698;BME280;51124;53.394;-6.294;2023-06-26T12:46:02;101213.56;;;29.04;9.94
64698;BME280;51124;53.394;-6.294;2023-06-26T12:48:37;101222.38;;;28.55;9.90
64698;BME280;51124;53.394;-6.294;2023-06-26T12:51:08;101223.84;;;28.32;10.14
64698;BME280;51124;53.394;-6.294;2023-06-26T12:53:32;101216.05;;;29.35;9.91
64698;BME280;51124;53.394;-6.294;2023-06-26T12:56:06;101220.61;;;28.61;9.89